Kiffa Airport


Codes: GQNF/KFA
Name: Kiffa Airport
City: Kiffa
Country: Mauritania
Elevation: 424 ft.
Wikipedia:

Photos at Kiffa Airport


   Photos courtesy of SpottingLog. You can add your own sightings and photos by signing up for a free trial today.



No photos found.

Weather at Kiffa Airport


Time (UTC)DescriptionTempratureWindCloud coverageVisibilityPressureHumidity
15-Apr-2024 18:00Broken Clouds37°C13 mph, NE64%10000m1011hPa6%
15-Apr-2024 21:00Scattered Clouds33°C11 mph, NE25%10000m1012hPa9%
16-Apr-2024 00:00Clear Sky28°C11 mph, NE0%10000m1013hPa11%
16-Apr-2024 03:00Clear Sky26°C11 mph, NE0%10000m1012hPa14%
16-Apr-2024 06:00Clear Sky24°C9 mph, NE0%10000m1013hPa18%
16-Apr-2024 09:00Clear Sky31°C13 mph, NE0%10000m1014hPa13%
16-Apr-2024 12:00Clear Sky37°C18 mph, E0%10000m1012hPa7%
16-Apr-2024 15:00Clear Sky39°C11 mph, E0%10000m1009hPa6%
16-Apr-2024 18:00Clear Sky38°C9 mph, E0%10000m1008hPa6%
16-Apr-2024 21:00Clear Sky32°C11 mph, NE0%10000m1010hPa9%
17-Apr-2024 00:00Clear Sky29°C11 mph, NE0%10000m1010hPa10%
17-Apr-2024 03:00Clear Sky27°C9 mph, N0%10000m1009hPa12%
17-Apr-2024 06:00Clear Sky25°C11 mph, N0%10000m1010hPa13%
17-Apr-2024 09:00Clear Sky32°C11 mph, NE0%10000m1012hPa9%
17-Apr-2024 12:00Clear Sky39°C13 mph, E0%10000m1010hPa6%
17-Apr-2024 15:00Clear Sky40°C4 mph, E0%10000m1007hPa5%
17-Apr-2024 18:00Clear Sky40°C4 mph, N0%10000m1006hPa6%
17-Apr-2024 21:00Clear Sky34°C9 mph, N0%10000m1009hPa7%
18-Apr-2024 00:00Clear Sky30°C9 mph, N0%10000m1010hPa8%
18-Apr-2024 03:00Clear Sky27°C7 mph, N0%10000m1009hPa10%
18-Apr-2024 06:00Clear Sky27°C9 mph, N0%10000m1009hPa10%
18-Apr-2024 09:00Clear Sky33°C9 mph, NE0%10000m1011hPa7%
18-Apr-2024 12:00Clear Sky40°C4 mph, SE0%10000m1010hPa5%
18-Apr-2024 15:00Clear Sky42°C4 mph, NW0%10000m1006hPa4%
18-Apr-2024 18:00Clear Sky41°C9 mph, NW0%10000m1006hPa4%
18-Apr-2024 21:00Clear Sky35°C7 mph, N0%10000m1008hPa6%
19-Apr-2024 00:00Clear Sky31°C9 mph, N0%10000m1009hPa6%
19-Apr-2024 03:00Clear Sky29°C11 mph, N0%10000m1008hPa7%
19-Apr-2024 06:00Clear Sky27°C11 mph, N0%10000m1009hPa8%
19-Apr-2024 09:00Clear Sky33°C13 mph, NE0%10000m1011hPa6%
19-Apr-2024 12:00Clear Sky41°C11 mph, NE0%10000m1009hPa4%
19-Apr-2024 15:00Clear Sky42°C4 mph, NE0%10000m1005hPa4%
19-Apr-2024 18:00Clear Sky42°C4 mph, N0%10000m1005hPa4%
19-Apr-2024 21:00Clear Sky34°C7 mph, N0%10000m1007hPa6%
20-Apr-2024 00:00Clear Sky33°C9 mph, N0%10000m1007hPa6%
20-Apr-2024 03:00Clear Sky29°C11 mph, N0%10000m1006hPa8%
20-Apr-2024 06:00Few Clouds27°C11 mph, NE18%10000m1007hPa9%
20-Apr-2024 09:00Few Clouds33°C16 mph, NE17%10000m1008hPa7%
20-Apr-2024 12:00Few Clouds40°C11 mph, E12%10000m1007hPa5%
20-Apr-2024 15:00Clear Sky42°C4 mph, SE1%10000m1004hPa4%